Time;durP1;ratioP1;P1;durP2;ratioP2;P2;SDS_P1;SDS_P2;PMS_P1;PMS_P2;Temp;Humidity;BMP_temperature;BMP_pressure;BME280_temperature;BME280_humidity;BME280_pressure;Samples;Min_cycle;Max_cycle;Signal;HPM_P1;HPM_P2
2021/11/29 00:02:24;;;;;;;7.97;3.25;;;;;;;10.69;100.00;91156.09;5057037;28;20053;-83
2021/11/29 00:04:51;;;;;;;3.22;1.50;;;;;;;10.66;100.00;91158.44;5053739;28;20049;-83
2021/11/29 00:07:19;;;;;;;3.33;1.27;;;;;;;10.54;100.00;91131.25;5054780;28;20052;-82
2021/11/29 00:09:46;;;;;;;4.50;2.10;;;;;;;10.63;100.00;91143.53;5063394;28;20077;-82
2021/11/29 00:12:12;;;;;;;5.45;2.75;;;;;;;10.53;100.00;91139.97;5055170;28;20076;-83
2021/11/29 00:14:39;;;;;;;9.27;4.82;;;;;;;10.55;100.00;91139.69;5064487;28;20040;-83
2021/11/29 00:17:06;;;;;;;6.03;2.05;;;;;;;10.52;100.00;91137.66;5059917;28;20044;-82
2021/11/29 00:19:33;;;;;;;68.47;33.22;;;;;;;10.63;100.00;91146.09;5068503;28;20067;-83
2021/11/29 00:22:00;;;;;;;35.20;15.82;;;;;;;10.61;100.00;91148.16;5069155;28;20052;-82
2021/11/29 00:24:28;;;;;;;5.38;2.30;;;;;;;10.58;100.00;91156.38;5067806;28;20048;-83
2021/11/29 00:26:55;;;;;;;98.82;49.13;;;;;;;10.53;100.00;91139.19;5066464;28;20040;-83
2021/11/29 00:29:21;;;;;;;8.57;3.05;;;;;;;10.65;100.00;91154.31;5057299;28;20442;-83
2021/11/29 00:31:48;;;;;;;5.20;2.50;;;;;;;10.66;100.00;91143.78;5060508;28;20135;-83
2021/11/29 00:34:15;;;;;;;10.27;5.32;;;;;;;10.64;100.00;91142.53;5063612;28;20061;-83
2021/11/29 00:36:42;;;;;;;11.98;5.60;;;;;;;10.53;100.00;91128.94;5058279;28;20098;-83
2021/11/29 00:39:09;;;;;;;6.07;3.10;;;;;;;10.64;100.00;91129.69;5063892;28;20438;-83
2021/11/29 00:41:37;;;;;;;6.35;3.33;;;;;;;10.62;100.00;91134.28;5070530;28;20044;-83
2021/11/29 00:44:04;;;;;;;6.30;2.97;;;;;;;10.45;100.00;91112.25;5060627;28;20048;-84
2021/11/29 00:46:31;;;;;;;7.50;2.10;;;;;;;10.64;100.00;91135.56;5069957;28;20064;-84
2021/11/29 00:48:58;;;;;;;17.80;8.05;;;;;;;10.63;100.00;91131.47;5072888;28;20040;-84
2021/11/29 00:51:25;;;;;;;4.45;1.80;;;;;;;10.60;100.00;91131.97;5072970;28;20048;-84
2021/11/29 00:53:51;;;;;;;12.32;5.53;;;;;;;10.63;100.00;91141.75;5073612;28;20052;-84
2021/11/29 00:56:20;;;;;;;9.60;3.88;;;;;;;10.68;100.00;91154.56;5073378;28;20059;-85
2021/11/29 00:58:48;;;;;;;6.90;3.25;;;;;;;10.67;100.00;91157.41;5073720;28;20145;-85
2021/11/29 01:01:16;;;;;;;10.77;4.82;;;;;;;10.62;100.00;91170.25;5073607;28;20048;-85
2021/11/29 01:03:43;;;;;;;6.00;2.30;;;;;;;10.58;100.00;91167.44;5073695;28;20044;-86
2021/11/29 01:06:10;;;;;;;11.48;3.80;;;;;;;10.58;100.00;91171.78;5073567;28;20048;-85
2021/11/29 01:08:37;;;;;;;5.47;2.72;;;;;;;10.60;100.00;91173.06;5073520;28;20055;-85
2021/11/29 01:11:05;;;;;;;6.43;2.35;;;;;;;10.60;100.00;91162.03;5073277;28;20450;-84
2021/11/29 01:13:33;;;;;;;16.63;7.05;;;;;;;10.51;100.00;91131.00;5073257;28;20102;-84
2021/11/29 01:16:02;;;;;;;9.10;3.58;;;;;;;10.55;100.00;91126.84;5073503;28;20053;-84
2021/11/29 01:18:29;;;;;;;6.72;3.30;;;;;;;10.63;100.00;91128.91;5073137;28;20045;-85
2021/11/29 01:20:56;;;;;;;4.85;1.85;;;;;;;10.53;100.00;91134.06;5073134;28;20060;-84
2021/11/29 01:23:23;;;;;;;5.68;2.40;;;;;;;10.65;100.00;91134.53;5072988;28;20081;-84
2021/11/29 01:25:53;;;;;;;5.38;2.60;;;;;;;10.67;100.00;91126.59;5073007;28;20117;-84
2021/11/29 01:28:21;;;;;;;5.93;2.28;;;;;;;10.68;100.00;91115.28;5073118;28;20157;-85
2021/11/29 01:30:48;;;;;;;6.78;2.33;;;;;;;10.70;100.00;91110.66;5071951;28;20037;-84
2021/11/29 01:33:16;;;;;;;3.33;1.63;;;;;;;10.69;100.00;91103.97;5072880;28;20041;-85
2021/11/29 01:35:43;;;;;;;20.60;9.55;;;;;;;10.62;100.00;91082.94;5072857;28;20055;-85
2021/11/29 01:38:10;;;;;;;37.58;18.00;;;;;;;10.74;100.00;91098.81;5072673;28;20102;-85
2021/11/29 01:40:38;;;;;;;9.55;4.25;;;;;;;10.71;100.00;91096.78;5072687;28;20049;-85
2021/11/29 01:43:07;;;;;;;16.60;7.55;;;;;;;10.65;100.00;91096.03;5072887;28;20411;-84
2021/11/29 01:45:37;;;;;;;17.48;8.13;;;;;;;10.66;100.00;91076.25;5072884;28;20045;-85
2021/11/29 01:48:04;;;;;;;5.57;2.50;;;;;;;10.67;100.00;91070.09;5072702;28;20414;-84
2021/11/29 01:50:33;;;;;;;6.50;3.47;;;;;;;10.68;100.00;91072.41;5072401;28;20048;-84
2021/11/29 01:53:00;;;;;;;17.77;9.93;;;;;;;10.70;100.00;91061.88;5072755;28;20449;-85
2021/11/29 01:55:26;;;;;;;2.92;1.48;;;;;;;10.69;100.00;91063.66;5072445;28;20051;-84
2021/11/29 01:57:54;;;;;;;13.75;6.90;;;;;;;10.70;100.00;91056.75;5072539;28;20094;-84
2021/11/29 02:00:25;;;;;;;7.22;4.25;;;;;;;10.69;100.00;91052.63;5072711;28;20056;-84
2021/11/29 02:02:54;;;;;;;3.72;1.90;;;;;;;10.72;100.00;91067.50;5072240;28;20429;-84
2021/11/29 02:05:22;;;;;;;10.57;6.25;;;;;;;10.64;100.00;91048.28;5072259;28;20049;-84
2021/11/29 02:07:51;;;;;;;5.72;2.92;;;;;;;10.74;100.00;91059.53;5072373;28;20450;-84
2021/11/29 02:10:21;;;;;;;5.07;3.03;;;;;;;10.73;100.00;91053.63;5072426;28;20457;-84
2021/11/29 02:12:48;;;;;;;2.67;1.52;;;;;;;10.63;100.00;91040.84;5072283;28;20050;-84
2021/11/29 02:15:17;;;;;;;9.55;7.07;;;;;;;10.81;100.00;91047.19;5072088;28;20048;-84
2021/11/29 02:17:44;;;;;;;2.53;1.35;;;;;;;10.85;100.00;91040.50;5071845;28;20063;-84
2021/11/29 02:20:12;;;;;;;2.45;1.35;;;;;;;10.88;100.00;91034.06;5072330;28;20040;-84
2021/11/29 02:22:44;;;;;;;1.95;1.02;;;;;;;10.85;100.00;91035.34;5071881;28;20048;-84
2021/11/29 02:25:11;;;;;;;3.08;2.05;;;;;;;10.88;100.00;91034.06;5071857;28;20045;-84
2021/11/29 02:27:39;;;;;;;1.70;0.80;;;;;;;10.89;100.00;91041.50;5071956;28;20055;-84
2021/11/29 02:30:07;;;;;;;2.10;1.48;;;;;;;10.85;100.00;91034.56;5071664;28;20055;-84
2021/11/29 02:32:34;;;;;;;2.33;0.77;;;;;;;10.90;100.00;91032.75;5071758;28;20052;-84
2021/11/29 02:35:01;;;;;;;4.72;1.90;;;;;;;10.92;100.00;91033.25;5071802;28;20389;-84
2021/11/29 02:37:27;;;;;;;4.38;2.28;;;;;;;10.95;100.00;91043.00;5071663;28;20052;-84
2021/11/29 02:39:57;;;;;;;2.28;1.45;;;;;;;10.94;100.00;91044.03;5071580;28;20041;-84
2021/11/29 02:42:24;;;;;;;3.63;2.13;;;;;;;10.90;100.00;91025.06;5071197;28;20131;-84
2021/11/29 02:44:51;;;;;;;2.65;1.33;;;;;;;10.97;100.00;91040.16;5071383;28;20491;-84
2021/11/29 02:47:18;;;;;;;2.45;1.30;;;;;;;10.95;100.00;91035.31;5071378;28;20058;-84
2021/11/29 02:49:45;;;;;;;2.20;1.20;;;;;;;10.90;100.00;91016.56;5071580;28;20052;-84
2021/11/29 02:52:15;;;;;;;3.25;2.05;;;;;;;10.94;100.00;91025.28;5071364;28;20040;-84
2021/11/29 02:54:44;;;;;;;2.08;1.20;;;;;;;10.97;100.00;91035.03;5071330;28;20052;-83
2021/11/29 02:57:14;;;;;;;20.73;8.05;;;;;;;10.89;100.00;91053.56;5070980;28;20495;-85
2021/11/29 02:59:42;;;;;;;5.85;1.75;;;;;;;10.56;100.00;91048.84;5071293;28;20052;-85
2021/11/29 03:02:12;;;;;;;6.90;2.20;;;;;;;10.55;100.00;91062.69;5071343;28;20059;-84
2021/11/29 03:04:39;;;;;;;32.13;13.43;;;;;;;10.38;100.00;91016.78;5071135;28;20483;-86
2021/11/29 03:07:07;;;;;;;19.95;7.82;;;;;;;10.39;100.00;91043.97;5071226;28;20049;-85
2021/11/29 03:09:35;;;;;;;22.30;8.27;;;;;;;10.50;100.00;91055.78;5071009;28;20505;-85
2021/11/29 03:12:03;;;;;;;6.60;2.17;;;;;;;10.40;100.00;91038.59;5071270;28;20052;-84
2021/11/29 03:14:31;;;;;;;1.83;0.70;;;;;;;10.32;100.00;91010.88;5071048;28;20052;-84
2021/11/29 03:16:59;;;;;;;2.53;1.00;;;;;;;10.30;100.00;91010.41;5070115;28;20316;-84
2021/11/29 03:19:30;;;;;;;1.25;0.55;;;;;;;10.24;100.00;91030.16;5071072;28;20101;-84
2021/11/29 03:21:57;;;;;;;2.80;0.55;;;;;;;10.11;100.00;91010.19;5070982;28;20055;-83
2021/11/29 03:24:25;;;;;;;3.53;0.52;;;;;;;10.15;100.00;91031.75;5070771;28;20166;-83
2021/11/29 03:26:52;;;;;;;0.90;0.38;;;;;;;10.10;100.00;91034.31;5070851;28;20049;-83
2021/11/29 03:29:20;;;;;;;2.25;0.40;;;;;;;9.94;100.00;91010.47;5070835;28;20048;-84
2021/11/29 03:31:52;;;;;;;0.85;0.30;;;;;;;9.97;100.00;91038.97;5070911;28;20135;-83
2021/11/29 03:34:20;;;;;;;0.77;0.38;;;;;;;9.92;100.00;91038.97;5070767;28;20048;-83
2021/11/29 03:36:49;;;;;;;0.98;0.38;;;;;;;9.86;100.00;91035.63;5070588;28;20044;-83
2021/11/29 03:39:18;;;;;;;0.73;0.30;;;;;;;9.74;100.00;91040.25;5071118;28;20407;-81
2021/11/29 03:41:47;;;;;;;2.80;1.52;;;;;;;9.74;100.00;91055.66;5070756;28;20051;-82
2021/11/29 03:44:14;;;;;;;2.25;0.77;;;;;;;9.69;100.00;91051.31;5070824;28;20090;-82
2021/11/29 03:46:42;;;;;;;1.73;0.70;;;;;;;9.68;100.00;91051.56;5070809;28;20055;-83
2021/11/29 03:49:11;;;;;;;1.83;0.68;;;;;;;9.62;100.00;91043.84;5070624;28;20041;-82
2021/11/29 03:51:38;;;;;;;2.80;1.10;;;;;;;9.60;100.00;91055.41;5070841;28;20041;-83
2021/11/29 03:54:05;;;;;;;3.80;1.20;;;;;;;9.52;100.00;91054.09;5073749;28;20051;-82
2021/11/29 03:56:32;;;;;;;3.67;1.08;;;;;;;9.53;100.00;91065.13;5074756;28;20059;-83
2021/11/29 03:58:59;;;;;;;2.72;0.82;;;;;;;9.48;100.00;91064.09;5074754;28;20045;-83
2021/11/29 04:01:26;;;;;;;1.70;0.50;;;;;;;9.48;100.00;91047.94;5074565;28;20098;-82
2021/11/29 04:03:53;;;;;;;3.20;0.70;;;;;;;9.39;100.00;91041.81;5074485;28;20083;-93
2021/11/29 04:06:24;;;;;;;4.28;1.00;;;;;;;9.45;100.00;91038.97;5074528;28;20040;-83
2021/11/29 04:08:50;;;;;;;2.97;0.80;;;;;;;9.44;100.00;91029.75;5074536;28;20033;-82
2021/11/29 04:11:17;;;;;;;2.22;0.80;;;;;;;9.44;100.00;91014.38;5074414;28;20056;-83
2021/11/29 04:13:44;;;;;;;2.28;0.47;;;;;;;9.45;100.00;91000.53;5074471;28;20052;-83
2021/11/29 04:16:13;;;;;;;1.20;0.60;;;;;;;9.43;100.00;90996.69;5074310;28;20063;-83
2021/11/29 04:18:41;;;;;;;2.03;0.77;;;;;;;9.34;100.00;90991.31;5074255;28;20139;-83
2021/11/29 04:21:08;;;;;;;2.67;1.25;;;;;;;9.45;100.00;90999.78;5074279;28;20084;-83
2021/11/29 04:23:37;;;;;;;4.70;2.10;;;;;;;9.41;100.00;90989.28;5074396;28;20070;-84
2021/11/29 04:26:04;;;;;;;2.42;1.05;;;;;;;9.41;100.00;90973.13;5074295;28;20206;-82
2021/11/29 04:28:31;;;;;;;6.97;2.60;;;;;;;9.45;100.00;90979.28;5074167;28;20084;-82
2021/11/29 04:30:59;;;;;;;3.13;1.58;;;;;;;9.40;100.00;90969.03;5073962;28;20044;-82
2021/11/29 04:33:26;;;;;;;11.82;4.22;;;;;;;9.38;100.00;90974.41;5074042;28;20052;-82
2021/11/29 04:35:53;;;;;;;8.20;3.42;;;;;;;9.44;100.00;90998.25;5074029;28;20045;-82
2021/11/29 04:38:19;;;;;;;5.43;2.60;;;;;;;9.40;100.00;91003.09;5073841;28;20518;-82
2021/11/29 04:40:48;;;;;;;5.00;2.45;;;;;;;9.32;100.00;90998.50;5074041;28;20048;-81
2021/11/29 04:43:15;;;;;;;7.15;3.22;;;;;;;9.42;100.00;91013.88;5073874;28;20505;-81
2021/11/29 04:45:42;;;;;;;8.32;3.35;;;;;;;9.40;100.00;91015.16;5073789;28;20080;-81
2021/11/29 04:48:09;;;;;;;7.63;3.33;;;;;;;9.42;100.00;91019.00;5074179;28;20406;-81
2021/11/29 04:50:37;;;;;;;9.02;4.75;;;;;;;9.41;100.00;91009.78;5073668;28;20059;-81
2021/11/29 04:53:04;;;;;;;8.07;3.72;;;;;;;9.39;100.00;91018.75;5073705;28;20064;-81
2021/11/29 04:55:30;;;;;;;3.20;1.45;;;;;;;9.43;100.00;91023.09;5073658;28;20052;-81
2021/11/29 04:57:59;;;;;;;2.47;1.13;;;;;;;9.38;100.00;91023.09;5073425;28;20067;-81
2021/11/29 05:00:25;;;;;;;3.10;0.77;;;;;;;9.38;100.00;91030.78;5073598;28;20049;-81
2021/11/29 05:02:52;;;;;;;2.13;1.00;;;;;;;9.39;100.00;91023.88;5073515;28;20423;-81
2021/11/29 05:05:19;;;;;;;1.85;0.90;;;;;;;9.42;100.00;91028.47;5073402;28;20050;-81
2021/11/29 05:07:46;;;;;;;1.90;0.90;;;;;;;9.41;100.00;91027.72;5073739;28;20055;-81
2021/11/29 05:10:13;;;;;;;1.50;0.93;;;;;;;9.40;100.00;91036.41;5073372;28;20052;-81
2021/11/29 05:12:40;;;;;;;1.98;0.75;;;;;;;9.35;100.00;91036.41;5073236;28;20049;-81
2021/11/29 05:15:09;;;;;;;1.17;0.60;;;;;;;9.38;100.00;91035.91;5073434;28;20063;-81
2021/11/29 05:17:36;;;;;;;2.22;0.80;;;;;;;9.36;100.00;91030.28;5073367;28;20044;-81
2021/11/29 05:20:04;;;;;;;2.38;1.30;;;;;;;9.40;100.00;91046.66;5073234;28;20063;-81
2021/11/29 05:22:31;;;;;;;3.92;1.60;;;;;;;9.40;100.00;91046.66;5073097;28;20057;-81
2021/11/29 05:24:58;;;;;;;2.63;1.27;;;;;;;9.33;100.00;91038.47;5070217;28;20406;-81
2021/11/29 05:27:25;;;;;;;4.78;1.70;;;;;;;9.32;100.00;91030.03;5073014;28;20056;-81
2021/11/29 05:29:52;;;;;;;3.53;1.75;;;;;;;9.26;100.00;91030.28;5073070;28;20041;-81
2021/11/29 05:32:20;;;;;;;7.18;2.05;;;;;;;9.34;100.00;91051.03;5073314;28;20053;-81
2021/11/29 05:34:47;;;;;;;5.00;2.22;;;;;;;9.34;100.00;91065.63;5073060;28;20040;-81
2021/11/29 05:37:13;;;;;;;8.20;2.30;;;;;;;9.30;100.00;91064.63;5050105;28;20052;-81
2021/11/29 05:39:40;;;;;;;4.50;2.30;;;;;;;9.36;100.00;91069.47;5072795;28;20045;-81
2021/11/29 05:42:07;;;;;;;7.68;4.15;;;;;;;9.38;100.00;91060.75;5072775;28;20064;-81
2021/11/29 05:44:34;;;;;;;13.75;6.95;;;;;;;9.39;100.00;91067.44;5072930;28;20078;-81
2021/11/29 05:47:01;;;;;;;13.10;8.50;;;;;;;9.40;100.00;91061.28;5072863;28;20048;-81
2021/11/29 05:49:29;;;;;;;7.95;5.05;;;;;;;9.38;100.00;91048.72;5072749;28;20053;-81
2021/11/29 05:51:57;;;;;;;13.50;7.70;;;;;;;9.35;100.00;91052.56;5072686;28;20072;-81
2021/11/29 05:54:25;;;;;;;12.82;7.18;;;;;;;9.26;100.00;91037.97;5072577;28;20841;-82
2021/11/29 05:56:52;;;;;;;8.98;5.30;;;;;;;9.28;100.00;91044.38;5072562;28;20051;-81
2021/11/29 05:59:21;;;;;;;11.70;7.63;;;;;;;9.29;100.00;91047.69;5072267;28;20053;-81
2021/11/29 06:01:48;;;;;;;10.57;6.60;;;;;;;9.26;100.00;91046.41;5072752;28;20403;-81
2021/11/29 06:04:15;;;;;;;14.32;8.80;;;;;;;9.25;100.00;91065.34;5072274;28;20487;-82
2021/11/29 06:06:43;;;;;;;13.35;9.13;;;;;;;9.24;100.00;91058.69;5072280;28;20044;-82
2021/11/29 06:09:10;;;;;;;13.80;8.63;;;;;;;9.04;100.00;91034.63;5072133;28;20466;-81
2021/11/29 06:11:38;;;;;;;14.90;9.25;;;;;;;9.15;100.00;91060.22;5072169;28;20060;-81
2021/11/29 06:14:05;;;;;;;15.32;9.05;;;;;;;9.14;100.00;91062.03;5072413;28;20080;-81
2021/11/29 06:16:32;;;;;;;15.77;8.93;;;;;;;9.17;100.00;91071.00;5071533;28;20051;-82
2021/11/29 06:18:58;;;;;;;21.73;13.13;;;;;;;9.13;100.00;91069.94;5071951;28;20063;-81
2021/11/29 06:21:25;;;;;;;39.42;20.48;;;;;;;9.10;100.00;91068.66;5071879;28;20051;-81
2021/11/29 06:23:54;;;;;;;26.95;17.95;;;;;;;9.05;100.00;91064.31;5071948;28;20055;-81
2021/11/29 06:26:21;;;;;;;27.17;15.85;;;;;;;9.10;100.00;91073.78;5071872;28;20045;-81
2021/11/29 06:28:49;;;;;;;29.33;16.05;;;;;;;8.96;100.00;91050.47;5071872;28;20059;-82
2021/11/29 06:31:16;;;;;;;21.67;13.77;;;;;;;9.16;100.00;91080.47;5071892;28;20385;-81
2021/11/29 06:33:42;;;;;;;22.05;13.05;;;;;;;9.17;100.00;91076.88;5072543;28;20074;-82
2021/11/29 06:36:10;;;;;;;35.78;21.60;;;;;;;9.19;100.00;91085.09;5072126;28;20052;-82
2021/11/29 06:38:37;;;;;;;45.92;26.80;;;;;;;9.21;100.00;91095.84;5071541;28;20048;-81
2021/11/29 06:41:05;;;;;;;45.97;26.23;;;;;;;9.21;100.00;91107.88;5071596;28;20490;-81
2021/11/29 06:43:33;;;;;;;40.47;22.35;;;;;;;9.13;100.00;91091.22;5071713;28;20435;-81
2021/11/29 06:46:00;;;;;;;37.47;20.70;;;;;;;9.20;100.00;91112.25;5071904;28;20528;-81
2021/11/29 06:48:28;;;;;;;37.45;22.40;;;;;;;9.18;100.00;91119.41;5071373;28;20511;-81
2021/11/29 06:50:56;;;;;;;34.10;20.88;;;;;;;9.19;100.00;91113.25;5071723;28;20415;-81
2021/11/29 06:53:23;;;;;;;32.22;19.65;;;;;;;9.21;100.00;91110.44;5071581;28;20045;-81
2021/11/29 06:55:51;;;;;;;27.00;17.13;;;;;;;9.21;100.00;91108.66;5063387;28;20048;-81
2021/11/29 06:58:19;;;;;;;28.35;16.48;;;;;;;9.25;100.00;91108.16;5057371;28;20052;-82
2021/11/29 07:00:47;;;;;;;24.52;14.63;;;;;;;9.20;100.00;91103.78;5054326;28;20180;-82
2021/11/29 07:03:14;;;;;;;27.92;17.45;;;;;;;9.40;100.00;91115.84;5063394;28;20049;-81
2021/11/29 07:05:41;;;;;;;35.40;18.88;;;;;;;9.42;100.00;91123.28;5070532;28;20426;-82
2021/11/29 07:08:09;;;;;;;33.70;18.73;;;;;;;9.34;100.00;91127.91;5067084;28;20044;-81
2021/11/29 07:10:40;;;;;;;31.65;18.75;;;;;;;9.46;100.00;91137.91;5064270;28;20054;-82
2021/11/29 07:13:07;;;;;;;33.72;18.63;;;;;;;9.49;100.00;91122.03;5058280;28;20060;-82
2021/11/29 07:15:35;;;;;;;36.88;21.13;;;;;;;9.56;100.00;91126.13;5068916;28;20044;-82
2021/11/29 07:18:02;;;;;;;28.90;17.33;;;;;;;9.61;100.00;91132.03;5069659;28;20045;-81
2021/11/29 07:20:29;;;;;;;30.55;18.00;;;;;;;9.60;100.00;91114.34;5070362;28;20048;-81
2021/11/29 07:22:56;;;;;;;29.42;17.30;;;;;;;9.69;100.00;91125.63;5064598;28;20140;-81
2021/11/29 07:25:23;;;;;;;25.73;14.63;;;;;;;9.71;100.00;91121.03;5070827;28;20048;-81
2021/11/29 07:27:50;;;;;;;24.15;15.02;;;;;;;9.79;100.00;91124.09;5054298;28;20049;-81
2021/11/29 07:30:20;;;;;;;23.48;14.50;;;;;;;9.80;100.00;91126.41;5064345;28;20142;-81
2021/11/29 07:32:53;;;;;;;24.80;14.77;;;;;;;9.83;100.00;91123.34;5061983;28;20466;-81
2021/11/29 07:35:20;;;;;;;23.33;12.93;;;;;;;9.85;100.00;91126.41;5070273;28;20049;-81
2021/11/29 07:37:47;;;;;;;58.58;37.63;;;;;;;9.91;100.00;91134.09;5069429;28;20114;-81
2021/11/29 07:40:14;;;;;;;58.60;37.17;;;;;;;9.79;100.00;91135.13;5070762;28;20048;-81
2021/11/29 07:42:41;;;;;;;50.65;29.83;;;;;;;9.87;100.00;91129.47;5070580;28;20048;-81
2021/11/29 07:45:11;;;;;;;45.53;27.20;;;;;;;9.88;100.00;91133.59;5069692;28;20056;-81
2021/11/29 07:47:38;;;;;;;35.58;20.65;;;;;;;9.98;100.00;91139.75;5070621;28;20435;-81
2021/11/29 07:50:09;;;;;;;28.02;17.42;;;;;;;10.00;100.00;91138.47;5070782;28;20052;-81
2021/11/29 07:52:36;;;;;;;36.03;26.92;;;;;;;10.06;100.00;91133.31;5070544;28;20055;-81
2021/11/29 07:55:07;;;;;;;24.27;15.77;;;;;;;10.12;100.00;91140.00;5070469;28;20063;-82
2021/11/29 07:57:34;;;;;;;12.35;6.68;;;;;;;10.13;100.00;91132.03;5070684;28;20052;-81
2021/11/29 08:00:04;;;;;;;14.02;7.95;;;;;;;10.15;100.00;91129.97;5070744;28;20052;-81
2021/11/29 08:02:31;;;;;;;10.95;6.53;;;;;;;10.09;100.00;91128.44;5070663;28;20094;-82
2021/11/29 08:04:58;;;;;;;13.13;7.90;;;;;;;10.18;100.00;91135.63;5070519;28;20049;-82
2021/11/29 08:07:26;;;;;;;11.90;6.95;;;;;;;10.16;100.00;91126.41;5070545;28;20055;-81
2021/11/29 08:09:54;;;;;;;9.45;5.80;;;;;;;10.04;100.00;91120.75;5070393;28;20048;-82
2021/11/29 08:12:21;;;;;;;12.82;9.93;;;;;;;10.11;100.00;91144.38;5070610;28;20051;-81
2021/11/29 08:14:48;;;;;;;27.65;21.02;;;;;;;10.07;100.00;91156.16;5070346;28;20051;-82
2021/11/29 08:17:15;;;;;;;18.08;10.55;;;;;;;10.03;100.00;91179.00;5069725;28;20152;-82
2021/11/29 08:19:43;;;;;;;10.60;6.55;;;;;;;9.98;100.00;91214.13;5070383;28;20053;-84
2021/11/29 08:22:10;;;;;;;17.75;7.60;;;;;;;9.62;100.00;91268.66;5070269;28;20094;-87
2021/11/29 08:24:38;;;;;;;10.13;4.47;;;;;;;8.70;100.00;91267.94;5070628;28;20048;-95
2021/11/29 08:27:14;;;;;;;21.65;8.20;;;;;;;8.11;100.00;91287.41;5070742;28;20044;-89
2021/11/29 08:29:41;;;;;;;23.38;8.30;;;;;;;7.66;100.00;91292.59;5070510;28;20063;-89
2021/11/29 08:32:09;;;;;;;18.40;6.03;;;;;;;6.97;100.00;91266.50;5070466;28;20040;-91
2021/11/29 08:34:39;;;;;;;21.42;7.05;;;;;;;6.66;100.00;91274.50;5070243;28;20516;-92
2021/11/29 08:37:06;;;;;;;30.38;9.80;;;;;;;6.70;100.00;91297.75;5070065;28;20052;-91
2021/11/29 08:39:33;;;;;;;44.78;15.05;;;;;;;6.50;100.00;91277.81;5072111;28;20122;-86
2021/11/29 08:42:01;;;;;;;43.88;11.02;;;;;;;6.49;100.00;91294.91;5074396;28;20047;-88
2021/11/29 08:44:30;;;;;;;24.83;7.68;;;;;;;6.63;100.00;91292.06;5074147;28;20074;-92
2021/11/29 08:46:58;;;;;;;33.90;10.40;;;;;;;6.63;100.00;91286.94;5074075;28;20056;-92
2021/11/29 08:49:26;;;;;;;16.52;5.50;;;;;;;6.58;100.00;91307.28;5073515;28;20048;-88
2021/11/29 08:51:53;;;;;;;28.15;9.20;;;;;;;6.62;100.00;91314.22;5073869;28;20130;-89
2021/11/29 08:54:21;;;;;;;4.88;2.30;;;;;;;6.31;100.00;91292.59;5073922;28;20410;-88
2021/11/29 08:56:48;;;;;;;56.63;34.78;;;;;;;6.59;100.00;91301.94;5073681;28;20044;-88
2021/11/29 08:59:27;;;;;;;20.73;9.05;;;;;;;6.71;100.00;91331.72;5073355;28;20061;-88
2021/11/29 09:01:55;;;;;;;12.93;3.53;;;;;;;6.60;100.00;91331.56;5073413;28;20041;-88
2021/11/29 09:04:26;;;;;;;4.60;1.48;;;;;;;6.28;100.00;91339.72;5073737;28;20044;-88
2021/11/29 09:06:55;;;;;;;5.30;2.47;;;;;;;5.96;100.00;91361.31;5073577;28;20102;-84
2021/11/29 09:09:24;;;;;;;3.65;2.58;;;;;;;5.86;100.00;91372.09;5073228;28;20041;-87
2021/11/29 09:11:52;;;;;;;2.78;2.00;;;;;;;5.62;100.00;91379.00;5070450;28;20092;-86
2021/11/29 09:14:24;;;;;;;2.97;1.60;;;;;;;5.38;100.00;91381.59;5073219;28;20067;-87
2021/11/29 09:16:52;;;;;;;1.38;0.82;;;;;;;5.32;100.00;91405.41;5073289;28;20048;-87
2021/11/29 09:19:18;;;;;;;3.42;2.17;;;;;;;5.51;100.00;91413.66;5073090;28;20051;-87
2021/11/29 09:21:47;;;;;;;4.65;3.75;;;;;;;5.27;100.00;91403.50;5072977;28;20045;-87
2021/11/29 09:24:14;;;;;;;1.77;1.00;;;;;;;5.12;100.00;91392.97;5073044;28;20132;-86
2021/11/29 09:26:41;;;;;;;2.90;1.58;;;;;;;4.97;100.00;91358.59;5072835;28;20495;-87
2021/11/29 09:29:08;;;;;;;4.30;2.38;;;;;;;5.18;100.00;91395.44;5072739;28;20056;-87
2021/11/29 09:31:36;;;;;;;6.88;4.10;;;;;;;5.35;100.00;91405.72;5073059;28;20048;-88
2021/11/29 09:34:03;;;;;;;8.55;6.07;;;;;;;5.68;100.00;91430.81;5072806;28;20044;-90
2021/11/29 09:36:31;;;;;;;3.72;2.45;;;;;;;5.72;100.00;91407.25;5072754;28;20438;-91
2021/11/29 09:38:58;;;;;;;3.40;2.20;;;;;;;5.81;100.00;91411.97;5072741;28;20056;-91
2021/11/29 09:41:26;;;;;;;6.72;4.75;;;;;;;5.58;100.00;91405.94;5072636;28;20048;-91
2021/11/29 09:43:53;;;;;;;7.78;4.25;;;;;;;5.33;100.00;91364.44;5072851;28;20135;-91
2021/11/29 09:46:22;;;;;;;5.82;2.90;;;;;;;5.78;100.00;91399.72;5072582;28;20067;-91
2021/11/29 09:48:57;;;;;;;4.88;2.33;;;;;;;5.84;100.00;91393.72;5072701;28;20044;-91
2021/11/29 09:51:27;;;;;;;3.78;1.15;;;;;;;5.69;100.00;91374.56;5071585;28;20048;-90
2021/11/29 09:54:09;;;;;;;4.47;2.78;;;;;;;5.80;100.00;91379.88;5073965;28;20049;-91
2021/11/29 09:56:40;;;;;;;5.07;3.83;;;;;;;6.01;100.00;91376.69;5075199;28;20060;-90
2021/11/29 09:59:11;;;;;;;6.68;3.30;;;;;;;6.19;100.00;91380.09;5072826;28;20052;-91
2021/11/29 10:01:38;;;;;;;8.23;4.03;;;;;;;6.37;100.00;91391.91;5072483;28;20052;-90
2021/11/29 10:04:06;;;;;;;8.57;5.43;;;;;;;6.53;100.00;91392.91;5072265;28;20135;-90
2021/11/29 10:06:34;;;;;;;8.68;6.00;;;;;;;6.63;100.00;91377.00;5072138;28;20048;-90
2021/11/29 10:09:02;;;;;;;8.57;5.25;;;;;;;6.76;100.00;91386.13;5072330;28;20410;-90
2021/11/29 10:11:29;;;;;;;18.40;11.73;;;;;;;6.81;100.00;91388.00;5072111;28;20051;-89
2021/11/29 10:13:58;;;;;;;10.20;4.95;;;;;;;6.88;100.00;91392.94;5072214;28;20044;-89
2021/11/29 10:16:40;;;;;;;11.30;6.63;;;;;;;6.62;100.00;91392.56;5072452;28;20475;-89
2021/11/29 10:19:11;;;;;;;14.23;7.45;;;;;;;6.74;100.00;91382.28;5071860;28;20052;-89
2021/11/29 10:21:39;;;;;;;3.72;2.03;;;;;;;6.70;100.00;91386.31;5072127;28;20047;-89
2021/11/29 10:24:12;;;;;;;6.85;3.55;;;;;;;6.78;100.00;91376.50;5072417;28;20048;-87
2021/11/29 10:26:41;;;;;;;8.13;5.20;;;;;;;6.80;100.00;91381.34;5071894;28;20056;-87
2021/11/29 10:29:11;;;;;;;8.00;4.45;;;;;;;6.15;100.00;91356.84;5071762;28;20139;-87
2021/11/29 10:31:42;;;;;;;40.38;20.05;;;;;;;5.61;100.00;91365.50;5071579;28;20044;-87
2021/11/29 10:34:12;;;;;;;34.83;15.63;;;;;;;5.33;100.00;91372.06;5071644;28;20487;-87
2021/11/29 10:36:42;;;;;;;6.07;3.67;;;;;;;5.00;100.00;91370.84;5071626;28;20441;-85
2021/11/29 10:39:12;;;;;;;15.73;9.65;;;;;;;4.80;100.00;91366.09;5071431;28;20044;-86
2021/11/29 10:41:44;;;;;;;8.43;4.65;;;;;;;4.83;100.00;91373.28;5071595;28;20040;-87
2021/11/29 10:44:13;;;;;;;5.95;3.17;;;;;;;4.91;100.00;91372.19;5071475;28;20529;-87
2021/11/29 10:46:42;;;;;;;8.00;3.10;;;;;;;4.84;100.00;91364.66;5071720;28;20571;-87
2021/11/29 10:49:13;;;;;;;10.15;5.60;;;;;;;4.64;100.00;91373.34;5071362;28;20505;-87
2021/11/29 10:51:43;;;;;;;13.95;7.10;;;;;;;4.88;100.00;91370.88;5071479;28;20053;-88
2021/11/29 10:54:14;;;;;;;7.10;4.05;;;;;;;5.28;100.00;91366.88;5071189;28;20047;-90
2021/11/29 10:56:42;;;;;;;4.97;2.83;;;;;;;5.58;100.00;91378.69;5071469;28;20054;-88
2021/11/29 10:59:12;;;;;;;8.20;4.90;;;;;;;5.79;100.00;91363.03;5071211;28;20059;-90
2021/11/29 11:01:58;;;;;;;12.55;7.22;;;;;;;5.14;100.00;91258.66;5076083;28;20458;-88
2021/11/29 11:08:06;;;;;;;12.93;7.55;;;;;;;5.28;100.00;91343.94;5044854;28;20526;-87
2021/11/29 11:10:36;;;;;;;11.18;5.93;;;;;;;5.20;100.00;91355.25;5071087;28;20048;-87
2021/11/29 11:13:05;;;;;;;39.13;18.40;;;;;;;5.05;100.00;91354.94;5070765;28;20040;-86
2021/11/29 11:15:43;;;;;;;23.35;11.15;;;;;;;4.76;100.00;91355.59;5071204;28;20123;-87
2021/11/29 11:18:11;;;;;;;13.25;6.55;;;;;;;4.77;100.00;91349.50;5071464;28;20102;-86
2021/11/29 11:20:41;;;;;;;44.65;20.67;;;;;;;4.74;100.00;91326.28;5071013;28;20464;-87
2021/11/29 11:23:08;;;;;;;49.08;22.30;;;;;;;4.94;100.00;91339.44;5070989;28;20048;-88
2021/11/29 11:25:42;;;;;;;25.40;13.13;;;;;;;5.25;100.00;91338.53;5070732;28;20055;-88
2021/11/29 11:28:10;;;;;;;44.17;25.75;;;;;;;5.29;100.00;91342.19;5049633;28;20045;-87
2021/11/29 11:30:41;;;;;;;16.30;9.15;;;;;;;5.50;100.00;91347.72;5071161;28;20127;-89
2021/11/29 11:33:11;;;;;;;9.85;5.10;;;;;;;5.74;100.00;91348.44;5070737;28;20505;-88